Risinger Woods, Louisiana
Current Conditions -  °F | °C
As of 7:53 PM on Friday 28 Nov 2014 (Local Time) from KDTN Reporting Station
Clear Clear  
Wind Chill: 57°   Ceiling: Unl
Heat Index: 57°   Visibility: 10mi
Dew Point: 46°   Wind: 12mph
Humidity: 67%   Direction: 170°S
Pressure: 30.12"   Gusts: NA
Location:  32.5955°N, 93.8642°W
Report Text: KDTN 290153Z AUTO 17010KT 10SM CLR 14/08 A3012 RMK AO2 SLP198 T01390078
Loading
Personal Weather Stations






























Interactive Weather Map New forecast layout! Learn more

10-Day Weather Forecast

Advertisements
Track Severe Weather on mobile